createdAt,value
2022-12-06T00:00:13.080Z,100983.25
2022-12-06T00:02:42.603Z,100979.78
2022-12-06T00:05:12.390Z,100979.78
2022-12-06T00:07:44.663Z,100980.66
2022-12-06T00:10:14.646Z,100977.16
2022-12-06T00:12:44.156Z,100974.56
2022-12-06T00:15:14.089Z,100965.03
2022-12-06T00:17:43.630Z,100971.09
2022-12-06T00:20:13.790Z,100965.91
2022-12-06T00:22:49.265Z,100978.91
2022-12-06T00:25:19.171Z,100969.38
2022-12-06T00:27:48.663Z,100974.56
2022-12-06T00:30:18.701Z,100974.56
2022-12-06T00:32:48.224Z,100974.56
2022-12-06T00:35:17.995Z,100967.66
2022-12-06T00:37:50.100Z,100962.47
2022-12-06T00:40:19.929Z,100964.19
2022-12-06T00:42:49.532Z,100964.19
2022-12-06T00:45:19.327Z,100967.66
2022-12-06T00:47:48.886Z,100965.91
2022-12-06T00:50:18.607Z,100967.66
2022-12-06T00:52:50.761Z,100968.50
2022-12-06T00:55:20.344Z,100965.03
2022-12-06T00:57:50.364Z,100972.84
2022-12-06T01:00:20.693Z,100973.69
2022-12-06T01:02:50.284Z,100978.91
2022-12-06T01:05:19.937Z,100980.63
2022-12-06T01:07:52.195Z,100978.06
2022-12-06T01:10:21.818Z,100978.03
2022-12-06T01:12:51.399Z,100983.25
2022-12-06T01:15:21.084Z,100975.44
2022-12-06T01:17:50.672Z,100974.59
2022-12-06T01:20:20.481Z,100979.78
2022-12-06T01:22:52.799Z,100976.31
2022-12-06T01:25:25.280Z,100975.44
2022-12-06T01:27:55.801Z,100975.44
2022-12-06T01:30:25.466Z,100971.97
2022-12-06T01:32:55.066Z,100975.44
2022-12-06T01:35:24.681Z,100969.41
2022-12-06T01:37:58.537Z,100972.00
2022-12-06T01:40:31.387Z,100973.72
2022-12-06T01:43:00.968Z,100972.00
2022-12-06T01:45:30.693Z,100971.13
2022-12-06T01:48:00.686Z,100964.19
2022-12-06T01:50:32.817Z,100974.59
2022-12-06T01:53:07.006Z,100973.72
2022-12-06T01:55:39.602Z,100965.06
2022-12-06T01:58:12.660Z,100967.66
2022-12-06T02:00:42.248Z,100960.72
2022-12-06T02:03:15.080Z,100961.59
2022-12-06T02:05:45.387Z,100963.31
2022-12-06T02:08:18.215Z,100965.91
2022-12-06T02:10:47.841Z,100952.03
2022-12-06T02:13:17.481Z,100953.81
2022-12-06T02:15:55.106Z,100957.25
2022-12-06T02:18:40.788Z,100959.00
2022-12-06T02:21:17.025Z,100957.25
2022-12-06T02:24:09.322Z,100955.50
2022-12-06T02:26:44.980Z,100963.31
2022-12-06T02:29:44.625Z,100961.59
2022-12-06T02:32:20.511Z,100954.66
2022-12-06T02:34:56.696Z,100947.75
2022-12-06T02:37:30.243Z,100944.28
2022-12-06T02:40:03.845Z,100956.41
2022-12-06T02:42:37.444Z,100946.00
2022-12-06T02:45:12.371Z,100936.47
2022-12-06T02:47:45.643Z,100935.59
2022-12-06T02:50:19.463Z,100941.69
2022-12-06T02:52:52.744Z,100934.75
2022-12-06T02:55:24.091Z,100935.59
2022-12-06T02:57:56.951Z,100937.31
2022-12-06T03:00:38.722Z,100933.84
2022-12-06T03:03:34.018Z,100942.53
2022-12-06T03:06:25.181Z,100943.38
2022-12-06T03:09:05.661Z,100944.25
2022-12-06T03:11:40.938Z,100938.22
2022-12-06T03:14:14.917Z,100945.97
2022-12-06T03:16:49.615Z,100945.97
2022-12-06T03:19:23.360Z,100941.66
2022-12-06T03:21:58.512Z,100936.44
2022-12-06T03:24:29.235Z,100937.31
2022-12-06T03:27:00.399Z,100937.31
2022-12-06T03:29:31.843Z,100930.38
2022-12-06T03:32:03.419Z,100933.88
2022-12-06T03:34:39.061Z,100931.28
2022-12-06T03:37:10.445Z,100933.88
2022-12-06T03:39:44.762Z,100926.06
2022-12-06T03:42:14.520Z,100931.28
2022-12-06T03:44:44.254Z,100929.53
2022-12-06T03:47:16.883Z,100931.25
2022-12-06T03:49:50.741Z,100928.66
2022-12-06T03:52:20.327Z,100929.53
2022-12-06T03:54:49.878Z,100928.69
2022-12-06T03:57:19.549Z,100930.41
2022-12-06T03:59:49.092Z,100931.25
2022-12-06T04:02:18.807Z,100932.13
2022-12-06T04:04:51.124Z,100928.66
2022-12-06T04:07:21.364Z,100923.47
2022-12-06T04:10:03.371Z,100926.91
2022-12-06T04:12:46.015Z,100927.78
2022-12-06T04:15:15.786Z,100927.78
2022-12-06T04:17:58.345Z,100923.47
2022-12-06T04:20:51.531Z,100919.13
2022-12-06T04:23:19.202Z,100926.91
2022-12-06T04:25:49.177Z,100917.41
2022-12-06T04:28:31.381Z,100927.78
2022-12-06T04:31:17.184Z,100917.38
2022-12-06T04:34:03.702Z,100922.59
2022-12-06T04:36:48.290Z,100924.34
2022-12-06T04:39:21.129Z,100927.78
2022-12-06T04:42:03.443Z,100924.34
2022-12-06T04:44:33.101Z,100922.59
2022-12-06T04:47:02.853Z,100923.44
2022-12-06T04:49:32.510Z,100922.56
2022-12-06T04:52:04.707Z,100924.31
2022-12-06T04:54:34.492Z,100929.50
2022-12-06T04:57:04.369Z,100926.06
2022-12-06T04:59:34.009Z,100922.56
2022-12-06T05:02:03.646Z,100924.31
2022-12-06T05:04:33.213Z,100924.31
2022-12-06T05:07:05.461Z,100926.06
2022-12-06T05:09:35.141Z,100921.72
2022-12-06T05:12:04.693Z,100925.16
2022-12-06T05:14:34.488Z,100922.59
2022-12-06T05:17:04.059Z,100919.09
2022-12-06T05:19:33.661Z,100919.13
2022-12-06T05:22:05.816Z,100920.84
2022-12-06T05:24:35.735Z,100913.91
2022-12-06T05:27:05.441Z,100911.28
2022-12-06T05:29:35.243Z,100913.03
2022-12-06T05:32:04.983Z,100911.31
2022-12-06T05:34:34.621Z,100914.78
2022-12-06T05:37:06.738Z,100913.91
2022-12-06T05:39:36.360Z,100913.91
2022-12-06T05:42:06.104Z,100917.34
2022-12-06T05:44:35.749Z,100918.22
2022-12-06T05:47:05.395Z,100911.28
2022-12-06T05:49:35.045Z,100918.22
2022-12-06T05:52:09.833Z,100914.75
2022-12-06T05:54:39.483Z,100910.44
2022-12-06T05:57:09.043Z,100908.69
2022-12-06T05:59:38.660Z,100911.31
2022-12-06T06:02:08.431Z,100911.28
2022-12-06T06:04:38.229Z,100917.38
2022-12-06T06:07:10.372Z,100914.78
2022-12-06T06:09:39.969Z,100914.75
2022-12-06T06:12:12.597Z,100911.28
2022-12-06T06:14:42.670Z,100921.69
2022-12-06T06:17:12.286Z,100912.16
2022-12-06T06:19:42.288Z,100913.00
2022-12-06T06:22:14.633Z,100912.16
2022-12-06T06:24:45.079Z,100909.56
2022-12-06T06:27:14.788Z,100911.28
2022-12-06T06:29:45.633Z,100910.41
2022-12-06T06:32:15.532Z,100913.06
2022-12-06T06:34:45.146Z,100914.78
2022-12-06T06:37:17.447Z,100915.66
2022-12-06T06:39:47.069Z,100916.50
2022-12-06T06:42:17.585Z,100913.06
2022-12-06T06:44:47.131Z,100909.56
2022-12-06T06:47:16.653Z,100918.22
2022-12-06T06:49:46.213Z,100912.16
2022-12-06T06:52:18.453Z,100922.56
2022-12-06T06:54:48.107Z,100915.63
2022-12-06T06:57:18.402Z,100918.22
2022-12-06T06:59:48.011Z,100914.75
2022-12-06T07:02:19.221Z,100914.75
2022-12-06T07:04:49.914Z,100913.00
2022-12-06T07:07:22.114Z,100908.66
2022-12-06T07:09:51.842Z,100910.44
2022-12-06T07:12:21.365Z,100911.28
2022-12-06T07:14:51.022Z,100913.00
2022-12-06T07:17:20.611Z,100912.13
2022-12-06T07:19:50.436Z,100910.38
2022-12-06T07:22:22.615Z,100908.63
2022-12-06T07:24:52.546Z,100913.81
2022-12-06T07:27:22.221Z,100915.53
2022-12-06T07:29:51.853Z,100915.53
2022-12-06T07:32:21.391Z,100919.03
2022-12-06T07:34:51.055Z,100919.91
2022-12-06T07:37:23.351Z,100922.50
2022-12-06T07:39:52.894Z,100911.28
2022-12-06T07:42:34.872Z,100918.22
2022-12-06T07:45:05.625Z,100913.00
2022-12-06T07:47:36.537Z,100913.81
2022-12-06T07:50:07.123Z,100917.31
2022-12-06T07:52:40.322Z,100922.53
2022-12-06T07:55:12.084Z,100926.84
2022-12-06T07:57:43.998Z,100922.50
2022-12-06T08:00:16.042Z,100921.66
2022-12-06T08:02:45.956Z,100929.44
2022-12-06T08:05:15.485Z,100923.38
2022-12-06T08:07:47.813Z,100930.31
2022-12-06T08:10:17.472Z,100932.91
2022-12-06T08:12:47.030Z,100937.22
2022-12-06T08:15:16.608Z,100935.50
2022-12-06T08:17:46.807Z,100941.59
2022-12-06T08:20:16.400Z,100940.72
2022-12-06T08:22:48.580Z,100945.03
2022-12-06T08:25:18.486Z,100940.69
2022-12-06T08:27:47.966Z,100948.47
2022-12-06T08:30:17.934Z,100947.56
2022-12-06T08:32:47.478Z,100947.59
2022-12-06T08:35:17.198Z,100943.25
2022-12-06T08:37:49.622Z,100946.75
2022-12-06T08:40:19.363Z,100947.59
2022-12-06T08:42:48.918Z,100947.59
2022-12-06T08:45:18.727Z,100956.25
2022-12-06T08:47:48.322Z,100954.53
2022-12-06T08:50:17.865Z,100953.66
2022-12-06T08:52:50.090Z,100954.47
2022-12-06T08:55:19.843Z,100951.84
2022-12-06T08:57:49.374Z,100955.34
2022-12-06T09:00:20.213Z,100954.50
2022-12-06T09:02:49.811Z,100960.56
2022-12-06T09:05:19.541Z,100956.19
2022-12-06T09:07:51.837Z,100956.22
2022-12-06T09:10:21.687Z,100960.56
2022-12-06T09:12:51.238Z,100960.56
2022-12-06T09:15:20.986Z,100951.88
2022-12-06T09:17:50.554Z,100959.69
2022-12-06T09:20:20.660Z,100961.41
2022-12-06T09:22:52.793Z,100962.28
2022-12-06T09:25:22.367Z,100963.16
2022-12-06T09:27:51.924Z,100969.22
2022-12-06T09:30:21.515Z,100970.97
2022-12-06T09:32:51.520Z,100969.19
2022-12-06T09:35:25.082Z,100966.56
2022-12-06T09:37:57.657Z,100967.44
2022-12-06T09:40:31.939Z,100969.16
2022-12-06T09:43:10.591Z,100974.34
2022-12-06T09:45:59.250Z,100972.63
2022-12-06T09:48:50.372Z,100963.00
2022-12-06T09:51:33.162Z,100975.16
2022-12-06T09:54:15.768Z,100966.50
2022-12-06T09:56:49.917Z,100973.41
2022-12-06T09:59:25.509Z,100968.22
2022-12-06T10:02:05.787Z,100968.19
2022-12-06T10:04:59.450Z,100960.38
2022-12-06T10:07:33.712Z,100960.34
2022-12-06T10:10:17.350Z,100961.25
2022-12-06T10:12:56.807Z,100952.53
2022-12-06T10:15:32.297Z,100956.88
2022-12-06T10:18:20.312Z,100955.09
2022-12-06T10:20:54.852Z,100948.13
2022-12-06T10:23:33.113Z,100951.59
2022-12-06T10:26:14.212Z,100943.72
2022-12-06T10:28:47.305Z,100958.50
2022-12-06T10:31:25.007Z,100955.00
2022-12-06T10:33:57.856Z,100953.19
2022-12-06T10:36:39.599Z,100945.31
2022-12-06T10:39:17.373Z,100941.81
2022-12-06T10:41:51.379Z,100940.03
2022-12-06T10:44:25.933Z,100933.03
2022-12-06T10:47:05.041Z,100939.94
2022-12-06T10:49:52.041Z,100932.97
2022-12-06T10:52:34.598Z,100936.47
2022-12-06T10:55:16.442Z,100926.00
2022-12-06T10:57:52.007Z,100928.59
2022-12-06T11:00:24.520Z,100925.06
2022-12-06T11:02:59.226Z,100920.69
2022-12-06T11:05:31.524Z,100930.25
2022-12-06T11:08:06.492Z,100918.00
2022-12-06T11:10:37.317Z,100921.47
2022-12-06T11:13:20.409Z,100923.13
2022-12-06T11:15:54.090Z,100917.06
2022-12-06T11:18:24.136Z,100922.28
2022-12-06T11:20:58.613Z,100916.19
2022-12-06T11:23:32.726Z,100917.91
2022-12-06T11:26:07.723Z,100908.28
2022-12-06T11:28:42.011Z,100906.56
2022-12-06T11:31:23.402Z,100903.97
2022-12-06T11:33:53.195Z,100903.94
2022-12-06T11:36:23.280Z,100901.31
2022-12-06T11:38:52.833Z,100903.84
2022-12-06T11:41:25.469Z,100908.13
2022-12-06T11:43:58.579Z,100908.13
2022-12-06T11:46:28.754Z,100908.91
2022-12-06T11:49:01.663Z,100901.06
2022-12-06T11:51:31.211Z,100907.06
2022-12-06T11:54:03.931Z,100904.41
2022-12-06T11:56:35.705Z,100901.78
2022-12-06T12:02:07.179Z,100901.63
2022-12-06T12:04:39.638Z,100906.78
2022-12-06T12:07:15.552Z,100901.53
2022-12-06T12:09:52.848Z,100908.50
2022-12-06T12:12:25.207Z,100901.47
2022-12-06T12:14:59.653Z,100896.19
2022-12-06T12:17:34.333Z,100895.38
2022-12-06T12:20:06.967Z,100895.31
2022-12-06T12:22:38.866Z,100907.44
2022-12-06T12:25:26.050Z,100899.59
2022-12-06T12:27:56.898Z,100897.88
2022-12-06T12:30:32.700Z,100894.31
2022-12-06T12:33:19.074Z,100886.44
2022-12-06T12:35:50.686Z,100898.59
2022-12-06T12:38:26.420Z,100889.03
2022-12-06T12:40:58.171Z,100884.47
2022-12-06T12:43:30.006Z,100885.44
2022-12-06T12:46:09.807Z,100882.06
2022-12-06T12:48:44.073Z,100878.56
2022-12-06T12:51:47.839Z,100873.25
2022-12-06T12:54:28.025Z,100881.03
2022-12-06T12:56:58.515Z,100879.25
2022-12-06T12:59:29.708Z,100878.50
2022-12-06T13:02:01.723Z,100882.94
2022-12-06T13:04:43.044Z,100883.91
2022-12-06T13:07:22.865Z,100881.22
2022-12-06T13:09:59.825Z,100876.81
2022-12-06T13:12:33.488Z,100881.19
2022-12-06T13:15:06.843Z,100879.34
2022-12-06T13:17:38.777Z,100883.81
2022-12-06T13:20:23.774Z,100885.63
2022-12-06T13:22:55.387Z,100877.69
2022-12-06T13:25:25.030Z,100882.19
2022-12-06T13:28:00.890Z,100874.13
2022-12-06T13:30:36.941Z,100872.25
2022-12-06T13:33:09.007Z,100875.06
2022-12-06T13:35:43.762Z,100868.94
2022-12-06T13:38:27.117Z,100870.47
2022-12-06T13:40:57.708Z,100867.78
2022-12-06T13:43:54.201Z,100864.94
2022-12-06T13:46:29.483Z,100863.97
2022-12-06T13:48:59.718Z,100862.06
2022-12-06T13:51:51.185Z,100869.75
2022-12-06T13:54:38.789Z,100861.72
2022-12-06T13:57:27.553Z,100861.63
2022-12-06T13:59:57.201Z,100870.38
2022-12-06T14:02:53.938Z,100872.03
2022-12-06T14:08:25.719Z,100865.78
2022-12-06T14:10:55.362Z,100863.25
2022-12-06T14:13:25.039Z,100872.84
2022-12-06T14:15:55.152Z,100873.84
2022-12-06T14:18:26.911Z,100867.06
2022-12-06T14:20:59.033Z,100867.81
2022-12-06T14:23:38.516Z,100871.22
2022-12-06T14:26:16.609Z,100873.09
2022-12-06T14:28:46.634Z,100863.63
2022-12-06T14:31:28.260Z,100873.25
2022-12-06T14:33:58.848Z,100872.38
2022-12-06T14:36:31.249Z,100867.16
2022-12-06T14:39:05.963Z,100875.00
2022-12-06T14:41:51.607Z,100862.09
2022-12-06T14:44:22.069Z,100866.38
2022-12-06T14:46:52.522Z,100861.22
2022-12-06T14:49:36.527Z,100851.69
2022-12-06T14:52:19.091Z,100854.34
2022-12-06T14:54:52.117Z,100856.09
2022-12-06T14:57:30.531Z,100860.44
2022-12-06T15:00:15.163Z,100847.31
2022-12-06T15:03:23.967Z,100862.09
2022-12-06T15:05:57.523Z,100856.03
2022-12-06T15:08:36.671Z,100851.81
2022-12-06T15:11:47.294Z,100856.13
2022-12-06T15:14:18.753Z,100862.31
2022-12-06T15:16:58.756Z,100860.59
2022-12-06T15:19:28.907Z,100866.94
2022-12-06T15:21:58.437Z,100866.91
2022-12-06T15:24:29.163Z,100862.72
2022-12-06T15:27:01.295Z,100867.91
2022-12-06T15:29:30.937Z,100871.38
2022-12-06T15:32:00.499Z,100864.44
2022-12-06T15:34:31.460Z,100858.25
2022-12-06T15:37:37.452Z,100863.47
2022-12-06T15:39:52.587Z,100861.75
2022-12-06T15:42:25.534Z,100864.44
2022-12-06T15:44:55.369Z,100856.75
2022-12-06T15:47:24.900Z,100853.28
2022-12-06T15:49:58.214Z,100856.72
2022-12-06T15:52:28.349Z,100854.16
2022-12-06T15:54:57.869Z,100855.00
2022-12-06T15:57:30.104Z,100852.50
2022-12-06T15:59:59.736Z,100850.78
2022-12-06T16:02:29.322Z,100853.44
2022-12-06T16:04:59.119Z,100849.91
2022-12-06T16:07:28.904Z,100853.34
2022-12-06T16:09:58.546Z,100859.41
2022-12-06T16:12:50.822Z,100870.88
2022-12-06T16:15:20.414Z,100858.69
2022-12-06T16:17:49.929Z,100872.59
2022-12-06T16:20:35.557Z,100869.09
2022-12-06T16:23:21.122Z,100870.00
2022-12-06T16:25:51.307Z,100869.19
2022-12-06T16:28:23.489Z,100865.78
2022-12-06T16:30:53.140Z,100871.94
2022-12-06T16:33:24.336Z,100856.28
2022-12-06T16:35:55.750Z,100857.19
2022-12-06T16:38:25.524Z,100859.84
2022-12-06T16:40:55.080Z,100856.38
2022-12-06T16:43:27.311Z,100857.22
2022-12-06T16:46:04.843Z,100853.78
2022-12-06T16:48:35.489Z,100844.19
2022-12-06T16:51:05.140Z,100839.84
2022-12-06T16:53:34.779Z,100841.56
2022-12-06T16:56:04.485Z,100843.34
2022-12-06T16:58:36.937Z,100844.22
2022-12-06T17:01:07.547Z,100838.19
2022-12-06T17:03:37.175Z,100835.59
2022-12-06T17:06:07.193Z,100829.59
2022-12-06T17:08:36.860Z,100825.25
2022-12-06T17:11:18.683Z,100833.91
2022-12-06T17:13:50.797Z,100816.53
2022-12-06T17:16:20.598Z,100819.13
2022-12-06T17:18:50.579Z,100819.13
2022-12-06T17:21:20.222Z,100819.13
2022-12-06T17:23:49.811Z,100823.50
2022-12-06T17:26:19.553Z,100813.88
2022-12-06T17:28:51.689Z,100814.75
2022-12-06T17:31:21.319Z,100819.91
2022-12-06T17:33:51.667Z,100819.91
2022-12-06T17:36:25.172Z,100812.00
2022-12-06T17:38:56.789Z,100821.59
2022-12-06T17:41:40.120Z,100814.69
2022-12-06T17:44:13.126Z,100817.34
2022-12-06T17:46:43.595Z,100815.50
2022-12-06T17:49:16.541Z,100820.84
2022-12-06T17:51:46.298Z,100827.69
2022-12-06T17:54:16.469Z,100817.25
2022-12-06T17:56:46.972Z,100826.88
2022-12-06T17:59:22.402Z,100818.97
2022-12-06T18:04:44.046Z,100819.00
2022-12-06T18:07:14.312Z,100813.78
2022-12-06T18:09:44.000Z,100819.03
2022-12-06T18:12:14.128Z,100815.53
2022-12-06T18:14:46.353Z,100810.28
2022-12-06T18:17:16.348Z,100819.81
2022-12-06T18:19:47.165Z,100823.31
2022-12-06T18:22:17.021Z,100815.47
2022-12-06T18:24:47.030Z,100815.50
2022-12-06T18:27:17.572Z,100806.00
2022-12-06T18:29:49.801Z,100805.13
2022-12-06T18:32:19.507Z,100803.34
2022-12-06T18:34:49.101Z,100794.63
2022-12-06T18:37:18.610Z,100796.38
2022-12-06T18:39:48.397Z,100803.28
2022-12-06T18:42:18.011Z,100793.88
2022-12-06T18:44:54.993Z,100799.06
2022-12-06T18:47:27.612Z,100805.06
2022-12-06T18:49:57.264Z,100802.44
2022-12-06T18:52:28.069Z,100805.94
2022-12-06T18:54:57.668Z,100804.97
2022-12-06T18:57:31.876Z,100801.47
2022-12-06T19:00:05.058Z,100807.47
2022-12-06T19:02:34.998Z,100806.63
2022-12-06T19:05:04.659Z,100800.47
2022-12-06T19:07:34.254Z,100807.53
2022-12-06T19:10:04.153Z,100798.84
2022-12-06T19:12:33.918Z,100801.34
2022-12-06T19:15:06.524Z,100800.56
2022-12-06T19:17:36.166Z,100797.97
2022-12-06T19:20:05.799Z,100796.22
2022-12-06T19:22:35.487Z,100795.25
2022-12-06T19:25:05.100Z,100792.69
2022-12-06T19:27:34.897Z,100794.31
2022-12-06T19:30:08.951Z,100799.56
2022-12-06T19:32:38.642Z,100793.41
2022-12-06T19:35:09.035Z,100797.78
2022-12-06T19:37:38.579Z,100793.44
2022-12-06T19:40:09.705Z,100796.00
2022-12-06T19:42:51.855Z,100787.25
2022-12-06T19:45:24.023Z,100792.47
2022-12-06T19:47:53.597Z,100783.91
2022-12-06T19:50:23.137Z,100786.47
2022-12-06T19:52:53.035Z,100781.13
2022-12-06T19:55:22.647Z,100779.41
2022-12-06T19:57:52.411Z,100780.31
2022-12-06T20:00:24.613Z,100774.16
2022-12-06T20:02:54.345Z,100777.66
2022-12-06T20:05:23.952Z,100781.16
2022-12-06T20:07:53.523Z,100777.63
2022-12-06T20:10:23.172Z,100777.69
2022-12-06T20:12:52.714Z,100770.75
2022-12-06T20:15:25.014Z,100776.81
2022-12-06T20:17:54.675Z,100771.59
2022-12-06T20:20:24.231Z,100769.00
2022-12-06T20:22:53.756Z,100777.72
2022-12-06T20:25:23.306Z,100772.59
2022-12-06T20:27:56.803Z,100769.16
2022-12-06T20:30:30.645Z,100775.19
2022-12-06T20:33:00.473Z,100772.50
2022-12-06T20:35:30.294Z,100779.50
2022-12-06T20:38:00.080Z,100774.31
2022-12-06T20:40:31.583Z,100768.94
2022-12-06T20:43:01.476Z,100762.88
2022-12-06T20:45:33.595Z,100768.03
2022-12-06T20:48:03.211Z,100775.19
2022-12-06T20:50:32.748Z,100772.44
2022-12-06T20:53:02.413Z,100772.69
2022-12-06T20:55:32.191Z,100768.25
2022-12-06T20:58:01.881Z,100763.94
2022-12-06T21:00:34.073Z,100760.44
2022-12-06T21:03:03.673Z,100761.13
2022-12-06T21:05:33.261Z,100770.00
2022-12-06T21:08:02.858Z,100767.41
2022-12-06T21:10:32.505Z,100767.47
2022-12-06T21:13:05.976Z,100761.31
2022-12-06T21:15:38.555Z,100763.06
2022-12-06T21:18:08.178Z,100763.94
2022-12-06T21:20:40.134Z,100756.09
2022-12-06T21:23:09.759Z,100758.66
2022-12-06T21:25:39.679Z,100754.34
2022-12-06T21:28:09.230Z,100741.28
2022-12-06T21:30:41.516Z,100742.16
2022-12-06T21:33:11.130Z,100743.91
2022-12-06T21:35:40.735Z,100743.00
2022-12-06T21:38:10.273Z,100753.41
2022-12-06T21:40:39.909Z,100757.72
2022-12-06T21:43:09.880Z,100765.53
2022-12-06T21:45:43.131Z,100760.31
2022-12-06T21:48:12.714Z,100757.72
2022-12-06T21:50:42.688Z,100751.69
2022-12-06T21:53:12.278Z,100751.72
2022-12-06T21:55:42.648Z,100749.13
2022-12-06T21:58:12.260Z,100757.75
2022-12-06T22:00:44.423Z,100753.44
2022-12-06T22:03:19.206Z,100758.69
2022-12-06T22:05:52.174Z,100762.81
2022-12-06T22:08:21.833Z,100762.91
2022-12-06T22:10:52.613Z,100758.53
2022-12-06T22:13:22.245Z,100747.25
2022-12-06T22:15:54.392Z,100750.72
2022-12-06T22:18:24.018Z,100751.56
2022-12-06T22:21:03.302Z,100748.94
2022-12-06T22:23:33.541Z,100752.31
2022-12-06T22:26:03.510Z,100752.31
2022-12-06T22:28:33.063Z,100750.53
2022-12-06T22:31:14.202Z,100752.22
2022-12-06T22:33:44.500Z,100755.69
2022-12-06T22:36:17.683Z,100758.25
2022-12-06T22:38:50.361Z,100756.69
2022-12-06T22:41:20.446Z,100761.06
2022-12-06T22:43:53.324Z,100756.69
2022-12-06T22:46:26.527Z,100758.31
2022-12-06T22:48:56.381Z,100759.31
2022-12-06T22:51:28.144Z,100760.03
2022-12-06T22:53:59.135Z,100756.56
2022-12-06T22:56:29.580Z,100758.19
2022-12-06T22:59:00.550Z,100758.22
2022-12-06T23:01:34.232Z,100751.25
2022-12-06T23:04:05.669Z,100748.59
2022-12-06T23:06:37.011Z,100758.16
2022-12-06T23:09:07.282Z,100743.34
2022-12-06T23:11:38.266Z,100752.94
2022-12-06T23:14:08.323Z,100744.25
2022-12-06T23:16:41.598Z,100737.19
2022-12-06T23:19:12.405Z,100738.16
2022-12-06T23:21:42.535Z,100738.19
2022-12-06T23:24:14.440Z,100736.44
2022-12-06T23:26:45.572Z,100739.06
2022-12-06T23:29:15.470Z,100738.28
2022-12-06T23:31:49.491Z,100731.28
2022-12-06T23:34:22.390Z,100727.75
2022-12-06T23:36:52.402Z,100726.06
2022-12-06T23:39:22.232Z,100721.72
2022-12-06T23:41:51.780Z,100726.91
2022-12-06T23:44:21.487Z,100727.75
2022-12-06T23:46:53.662Z,100732.13
2022-12-06T23:49:24.215Z,100724.81
2022-12-06T23:51:53.799Z,100721.59
2022-12-06T23:54:23.427Z,100725.94
2022-12-06T23:56:53.031Z,100723.34
2022-12-06T23:59:22.549Z,100713.69
